createdAt,value
2018-08-23T00:01:36.338Z,18.40
2018-08-23T00:04:06.989Z,18.40
2018-08-23T00:06:36.246Z,18.40
2018-08-23T00:09:07.808Z,18.40
2018-08-23T00:11:40.881Z,18.30
2018-08-23T00:14:09.928Z,18.30
2018-08-23T00:16:42.688Z,18.30
2018-08-23T00:19:11.712Z,18.20
2018-08-23T00:21:41.856Z,18.20
2018-08-23T00:24:17.735Z,18.20
2018-08-23T00:26:50.132Z,18.20
2018-08-23T00:29:25.760Z,18.20
2018-08-23T00:32:00.580Z,18.10
2018-08-23T00:34:33.552Z,18.10
2018-08-23T00:37:03.441Z,18.10
2018-08-23T00:39:32.397Z,18.10
2018-08-23T00:42:06.427Z,18.00
2018-08-23T00:44:51.293Z,18.00
2018-08-23T00:47:20.327Z,18.00
2018-08-23T00:49:49.247Z,18.00
2018-08-23T00:52:19.734Z,18.00
2018-08-23T00:54:49.236Z,18.00
2018-08-23T00:57:18.201Z,18.00
2018-08-23T00:59:51.567Z,18.00
2018-08-23T01:02:20.556Z,18.00
2018-08-23T01:04:49.510Z,18.00
2018-08-23T01:07:22.645Z,17.90
2018-08-23T01:09:51.574Z,17.90
2018-08-23T01:12:20.942Z,17.80
2018-08-23T01:14:51.976Z,17.80
2018-08-23T01:17:20.858Z,17.80
2018-08-23T01:20:01.371Z,17.70
2018-08-23T01:22:30.401Z,17.70
2018-08-23T01:25:00.980Z,17.70
2018-08-23T01:27:35.161Z,17.60
2018-08-23T01:30:04.208Z,17.60
2018-08-23T01:32:34.034Z,17.60
2018-08-23T01:35:03.113Z,17.60
2018-08-23T01:37:38.387Z,17.60
2018-08-23T01:40:09.810Z,17.60
2018-08-23T01:42:39.857Z,17.70
2018-08-23T01:45:10.151Z,17.70
2018-08-23T01:47:44.473Z,17.70
2018-08-23T01:50:14.351Z,17.70
2018-08-23T01:52:44.862Z,17.70
2018-08-23T01:55:14.581Z,17.70
2018-08-23T01:57:43.914Z,17.70
2018-08-23T02:00:17.782Z,17.60
2018-08-23T02:02:46.918Z,17.60
2018-08-23T02:05:15.904Z,17.50
2018-08-23T02:07:44.857Z,17.50
2018-08-23T02:10:13.771Z,17.50
2018-08-23T02:12:47.722Z,17.40
2018-08-23T02:15:16.682Z,17.30
2018-08-23T02:17:48.558Z,17.30
2018-08-23T02:20:17.558Z,17.30
2018-08-23T02:22:46.508Z,17.30
2018-08-23T02:25:15.414Z,17.30
2018-08-23T02:28:13.105Z,17.20
2018-08-23T02:30:47.807Z,17.30
2018-08-23T02:33:17.358Z,17.20
2018-08-23T02:36:22.621Z,17.20
2018-08-23T02:39:00.658Z,17.20
2018-08-23T02:41:29.696Z,17.20
2018-08-23T02:43:58.697Z,17.20
2018-08-23T02:46:27.661Z,17.20
2018-08-23T02:48:56.614Z,17.20
2018-08-23T02:51:32.758Z,17.20
2018-08-23T02:54:01.696Z,17.20
2018-08-23T02:56:30.592Z,17.20
2018-08-23T02:59:08.197Z,17.20
2018-08-23T03:01:41.978Z,17.20
2018-08-23T03:04:29.505Z,17.20
2018-08-23T03:07:01.784Z,17.10
2018-08-23T03:09:34.959Z,17.20
2018-08-23T03:12:07.685Z,17.20
2018-08-23T03:14:36.814Z,17.20
2018-08-23T03:17:27.606Z,17.10
2018-08-23T03:20:00.917Z,17.10
2018-08-23T03:22:30.528Z,17.10
2018-08-23T03:25:00.896Z,17.10
2018-08-23T03:27:30.535Z,17.00
2018-08-23T03:29:59.747Z,17.00
2018-08-23T03:32:28.993Z,17.00
2018-08-23T03:34:58.365Z,16.90
2018-08-23T03:37:27.359Z,17.00
2018-08-23T03:39:56.695Z,17.00
2018-08-23T03:42:26.106Z,17.00
2018-08-23T03:44:55.862Z,17.00
2018-08-23T03:47:24.985Z,17.00
2018-08-23T03:49:54.118Z,17.00
2018-08-23T03:52:54.547Z,17.00
2018-08-23T03:55:24.713Z,17.00
2018-08-23T03:58:08.097Z,17.00
2018-08-23T04:01:44.139Z,17.00
2018-08-23T04:04:13.034Z,16.90
2018-08-23T04:06:41.998Z,16.90
2018-08-23T04:09:10.936Z,16.90
2018-08-23T04:11:39.908Z,16.90
2018-08-23T04:14:08.842Z,16.90
2018-08-23T04:16:37.768Z,16.90
2018-08-23T04:19:06.724Z,16.90
2018-08-23T04:21:35.703Z,16.90
2018-08-23T04:24:05.143Z,17.00
2018-08-23T04:26:34.062Z,16.90
2018-08-23T04:29:03.006Z,17.00
2018-08-23T04:31:31.981Z,17.00
2018-08-23T04:34:04.408Z,17.00
2018-08-23T04:36:33.937Z,17.00
2018-08-23T04:39:07.041Z,17.10
2018-08-23T04:41:36.002Z,17.10
2018-08-23T04:44:10.142Z,17.10
2018-08-23T04:46:39.119Z,17.20
2018-08-23T04:49:08.347Z,17.30
2018-08-23T04:51:38.045Z,17.30
2018-08-23T04:54:07.169Z,17.40
2018-08-23T04:56:36.079Z,17.40
2018-08-23T04:59:05.104Z,17.50
2018-08-23T05:01:33.997Z,17.60
2018-08-23T05:04:02.983Z,17.60
2018-08-23T05:06:31.989Z,17.60
2018-08-23T05:09:00.947Z,17.60
2018-08-23T05:11:29.936Z,17.60
2018-08-23T05:13:58.930Z,17.70
2018-08-23T05:16:27.881Z,17.70
2018-08-23T05:18:56.833Z,17.70
2018-08-23T05:21:25.744Z,17.80
2018-08-23T05:23:59.074Z,17.90
2018-08-23T05:26:28.046Z,17.90
2018-08-23T05:29:03.517Z,18.00
2018-08-23T05:31:33.420Z,18.10
2018-08-23T05:34:09.881Z,18.20
2018-08-23T05:36:38.819Z,18.20
2018-08-23T05:39:08.998Z,18.30
2018-08-23T05:41:37.972Z,18.40
2018-08-23T05:44:11.585Z,18.50
2018-08-23T05:46:59.424Z,18.60
2018-08-23T05:49:28.547Z,18.60
2018-08-23T05:52:00.168Z,18.70
2018-08-23T05:54:29.072Z,18.70
2018-08-23T05:56:58.023Z,18.80
2018-08-23T05:59:27.019Z,18.80
2018-08-23T06:01:55.951Z,18.80
2018-08-23T06:04:35.835Z,18.90
2018-08-23T06:07:04.887Z,19.00
2018-08-23T06:09:33.879Z,19.10
2018-08-23T06:12:02.805Z,19.20
2018-08-23T06:14:31.797Z,19.20
2018-08-23T06:17:01.179Z,19.20
2018-08-23T06:19:30.594Z,19.30
2018-08-23T06:21:59.731Z,19.30
2018-08-23T06:24:29.824Z,19.40
2018-08-23T06:27:01.655Z,19.40
2018-08-23T06:29:32.046Z,19.50
2018-08-23T06:32:07.326Z,19.60
2018-08-23T06:34:38.045Z,19.60
2018-08-23T06:37:06.999Z,19.70
2018-08-23T06:39:35.988Z,19.70
2018-08-23T06:42:05.177Z,19.70
2018-08-23T06:44:40.205Z,19.80
2018-08-23T06:47:10.305Z,19.80
2018-08-23T06:49:39.433Z,19.90
2018-08-23T06:52:44.228Z,20.00
2018-08-23T06:55:16.113Z,20.20
2018-08-23T06:57:47.202Z,20.30
2018-08-23T07:00:21.487Z,20.50
2018-08-23T07:02:50.445Z,20.70
2018-08-23T07:05:20.084Z,20.80
2018-08-23T07:07:49.274Z,21.00
2018-08-23T07:10:18.399Z,21.10
2018-08-23T07:12:47.398Z,21.40
2018-08-23T07:15:16.356Z,21.70
2018-08-23T07:17:45.603Z,21.90
2018-08-23T07:20:16.270Z,22.10
2018-08-23T07:22:45.357Z,22.40
2018-08-23T07:25:16.039Z,22.60
2018-08-23T07:27:44.993Z,22.90
2018-08-23T07:30:17.285Z,23.10
2018-08-23T07:32:48.568Z,23.40
2018-08-23T07:35:19.735Z,23.70
2018-08-23T07:37:50.180Z,24.00
2018-08-23T07:40:20.954Z,24.30
2018-08-23T07:42:51.229Z,24.70
2018-08-23T07:45:20.194Z,25.10
2018-08-23T07:47:53.381Z,25.40
2018-08-23T07:50:22.526Z,25.60
2018-08-23T07:52:52.839Z,25.80
2018-08-23T07:55:21.782Z,26.00
2018-08-23T07:57:50.740Z,26.30
2018-08-23T08:00:31.266Z,26.60
2018-08-23T08:03:00.315Z,26.80
2018-08-23T08:05:30.670Z,27.10
2018-08-23T08:07:59.879Z,27.40
2018-08-23T08:10:34.291Z,27.60
2018-08-23T08:13:03.302Z,27.90
2018-08-23T08:15:32.263Z,28.30
2018-08-23T08:18:15.316Z,28.50
2018-08-23T08:20:48.505Z,28.70
2018-08-23T08:23:18.049Z,29.00
2018-08-23T08:25:46.973Z,29.20
2018-08-23T08:28:17.450Z,29.30
2018-08-23T08:30:47.180Z,29.50
2018-08-23T08:33:20.421Z,29.60
2018-08-23T08:35:49.490Z,29.80
2018-08-23T08:38:18.431Z,30.00
2018-08-23T08:40:49.063Z,30.30
2018-08-23T08:43:17.936Z,30.40
2018-08-23T08:45:46.923Z,30.50
2018-08-23T08:48:21.454Z,30.60
2018-08-23T08:51:06.653Z,30.70
2018-08-23T08:53:36.179Z,30.70
2018-08-23T08:56:05.153Z,30.80
2018-08-23T08:58:34.204Z,30.90
2018-08-23T09:01:03.282Z,31.00
2018-08-23T09:03:35.097Z,31.10
2018-08-23T09:06:05.871Z,31.20
2018-08-23T09:08:35.598Z,31.50
2018-08-23T09:11:04.976Z,31.80
2018-08-23T09:13:39.225Z,32.20
2018-08-23T09:16:09.536Z,32.30
2018-08-23T09:18:41.643Z,32.40
2018-08-23T09:21:10.650Z,32.50
2018-08-23T09:23:40.028Z,32.70
2018-08-23T09:26:09.017Z,32.80
2018-08-23T09:28:37.971Z,32.80
2018-08-23T09:31:07.184Z,32.90
2018-08-23T09:33:36.130Z,32.90
2018-08-23T09:36:05.194Z,33.00
2018-08-23T09:38:34.161Z,32.90
2018-08-23T09:41:03.123Z,33.00
2018-08-23T09:43:33.447Z,33.10
2018-08-23T09:46:02.562Z,33.30
2018-08-23T09:48:31.559Z,33.40
2018-08-23T09:51:00.687Z,33.10
2018-08-23T09:53:29.710Z,33.10
2018-08-23T09:55:58.627Z,32.90
2018-08-23T09:58:32.793Z,33.10
2018-08-23T10:01:06.910Z,33.30
2018-08-23T10:03:40.989Z,33.40
2018-08-23T10:06:15.133Z,33.50
2018-08-23T10:08:49.470Z,33.60
2018-08-23T10:11:23.680Z,33.60
2018-08-23T10:13:57.754Z,34.00
2018-08-23T10:16:31.913Z,34.20
2018-08-23T10:19:05.094Z,34.40
2018-08-23T10:21:39.094Z,34.50
2018-08-23T10:24:15.331Z,34.50
2018-08-23T10:26:44.930Z,34.50
2018-08-23T10:29:14.000Z,34.70
2018-08-23T10:31:42.975Z,34.60
2018-08-23T10:34:11.901Z,34.60
2018-08-23T10:36:40.869Z,34.60
2018-08-23T10:39:11.942Z,34.80
2018-08-23T10:41:40.932Z,35.00
2018-08-23T10:44:09.946Z,35.00
2018-08-23T10:46:44.004Z,35.10
2018-08-23T10:49:13.159Z,35.10
2018-08-23T10:51:42.210Z,35.20
2018-08-23T10:54:11.170Z,35.30
2018-08-23T10:56:40.187Z,35.30
2018-08-23T10:59:09.312Z,35.50
2018-08-23T11:01:38.290Z,35.60
2018-08-23T11:04:08.254Z,35.90
2018-08-23T11:06:41.490Z,36.20
2018-08-23T11:09:15.499Z,36.40
2018-08-23T11:11:44.470Z,36.30
2018-08-23T11:14:18.566Z,36.00
2018-08-23T11:16:52.740Z,35.90
2018-08-23T11:19:26.665Z,36.10
2018-08-23T11:21:55.605Z,36.30
2018-08-23T11:24:24.649Z,36.60
2018-08-23T11:26:53.515Z,36.60
2018-08-23T11:29:23.327Z,36.50
2018-08-23T11:31:52.365Z,36.30
2018-08-23T11:34:21.319Z,36.50
2018-08-23T11:36:50.300Z,36.40
2018-08-23T11:39:19.335Z,36.50
2018-08-23T11:41:48.276Z,36.60
2018-08-23T11:44:17.259Z,36.60
2018-08-23T11:46:46.221Z,36.90
2018-08-23T11:49:15.154Z,36.80
2018-08-23T11:51:44.141Z,37.10
2018-08-23T11:54:13.132Z,37.10
2018-08-23T11:56:42.180Z,37.00
2018-08-23T11:59:11.247Z,37.10
2018-08-23T12:01:40.250Z,37.20
2018-08-23T12:04:09.377Z,37.20
2018-08-23T12:06:38.399Z,37.10
2018-08-23T12:09:08.134Z,37.00
2018-08-23T12:11:37.053Z,37.20
2018-08-23T12:14:06.000Z,37.30
2018-08-23T12:16:35.021Z,37.40
2018-08-23T12:19:04.645Z,37.60
2018-08-23T12:21:33.655Z,37.80
2018-08-23T12:24:02.573Z,37.90
2018-08-23T12:26:31.671Z,38.00
2018-08-23T12:29:05.907Z,38.30
2018-08-23T12:31:34.929Z,38.50
2018-08-23T12:34:06.943Z,38.20
2018-08-23T12:36:41.133Z,38.00
2018-08-23T12:39:15.518Z,37.80
2018-08-23T12:41:49.970Z,37.80
2018-08-23T12:44:19.089Z,38.20
2018-08-23T12:46:48.107Z,38.30
2018-08-23T12:49:17.124Z,38.20
2018-08-23T12:51:46.229Z,38.10
2018-08-23T12:54:15.288Z,38.20
2018-08-23T12:56:44.316Z,38.20
2018-08-23T12:59:13.293Z,38.30
2018-08-23T13:01:42.410Z,38.40
2018-08-23T13:04:11.515Z,38.80
2018-08-23T13:06:40.633Z,39.10
2018-08-23T13:09:09.651Z,39.40
2018-08-23T13:11:38.594Z,39.60
2018-08-23T13:14:07.576Z,39.90
2018-08-23T13:16:36.553Z,40.10
2018-08-23T13:19:05.714Z,40.60
2018-08-23T13:21:34.757Z,41.00
2018-08-23T13:24:03.882Z,41.10
2018-08-23T13:26:38.053Z,41.20
2018-08-23T13:29:07.067Z,41.20
2018-08-23T13:31:36.125Z,41.20
2018-08-23T13:34:05.186Z,41.10
2018-08-23T13:36:34.133Z,41.10
2018-08-23T13:39:03.237Z,41.20
2018-08-23T13:41:32.270Z,41.60
2018-08-23T13:44:01.261Z,42.20
2018-08-23T13:46:30.267Z,42.80
2018-08-23T13:48:59.215Z,42.90
2018-08-23T13:51:28.191Z,43.10
2018-08-23T13:53:57.361Z,43.20
2018-08-23T13:56:26.759Z,43.00
2018-08-23T13:58:56.743Z,42.70
2018-08-23T14:01:26.931Z,42.40
2018-08-23T14:03:56.818Z,42.80
2018-08-23T14:06:26.144Z,42.80
2018-08-23T14:08:55.225Z,42.60
2018-08-23T14:11:24.262Z,42.80
2018-08-23T14:13:53.849Z,42.80
2018-08-23T14:16:22.921Z,42.10
2018-08-23T14:18:51.866Z,41.10
2018-08-23T14:21:20.911Z,41.40
2018-08-23T14:23:49.942Z,42.30
2018-08-23T14:26:18.870Z,43.20
2018-08-23T14:28:47.808Z,43.70
2018-08-23T14:31:16.764Z,44.00
2018-08-23T14:33:45.787Z,44.40
2018-08-23T14:36:14.943Z,44.10
2018-08-23T14:38:43.952Z,44.20
2018-08-23T14:41:13.034Z,44.10
2018-08-23T14:43:42.006Z,44.10
2018-08-23T14:46:16.199Z,44.10
2018-08-23T14:48:45.336Z,44.20
2018-08-23T14:51:17.801Z,44.50
2018-08-23T14:53:47.758Z,44.60
2018-08-23T14:56:21.960Z,44.60
2018-08-23T14:58:50.970Z,44.10
2018-08-23T15:01:20.134Z,44.30
2018-08-23T15:03:49.125Z,44.60
2018-08-23T15:06:18.217Z,44.40
2018-08-23T15:08:47.149Z,44.00
2018-08-23T15:11:16.207Z,44.10
2018-08-23T15:13:45.215Z,44.30
2018-08-23T15:16:14.222Z,44.50
2018-08-23T15:18:43.594Z,44.50
2018-08-23T15:21:12.615Z,44.70
2018-08-23T15:23:41.607Z,44.80
2018-08-23T15:26:10.706Z,44.80
2018-08-23T15:28:39.753Z,44.60
2018-08-23T15:31:09.304Z,44.40
2018-08-23T15:33:38.277Z,44.20
2018-08-23T15:36:07.291Z,44.20
2018-08-23T15:38:36.337Z,44.30
2018-08-23T15:41:05.492Z,44.20
2018-08-23T15:43:34.433Z,43.00
2018-08-23T15:46:03.555Z,41.20
2018-08-23T15:48:32.562Z,39.30
2018-08-23T15:51:01.567Z,37.80
2018-08-23T15:53:30.715Z,36.50
2018-08-23T15:55:59.931Z,35.60
2018-08-23T15:58:28.871Z,34.80
2018-08-23T16:00:57.932Z,34.40
2018-08-23T16:03:26.999Z,34.00
2018-08-23T16:05:55.974Z,33.70
2018-08-23T16:08:25.011Z,33.40
2018-08-23T16:10:54.052Z,33.10
2018-08-23T16:13:23.107Z,32.80
2018-08-23T16:15:56.264Z,32.60
2018-08-23T16:20:32.333Z,32.30
2018-08-23T16:23:01.481Z,32.30
2018-08-23T16:25:34.605Z,32.00
2018-08-23T16:28:03.715Z,31.90
2018-08-23T16:30:32.774Z,31.80
2018-08-23T16:33:01.791Z,31.70
2018-08-23T16:35:30.819Z,31.60
2018-08-23T16:37:59.870Z,31.50
2018-08-23T16:40:30.812Z,31.40
2018-08-23T16:43:00.937Z,31.20
2018-08-23T16:45:30.133Z,31.00
2018-08-23T16:47:59.053Z,30.90
2018-08-23T16:50:28.956Z,30.70
2018-08-23T16:52:58.127Z,30.50
2018-08-23T16:55:27.101Z,30.40
2018-08-23T16:57:56.007Z,30.20
2018-08-23T17:00:25.076Z,29.90
2018-08-23T17:02:54.085Z,29.70
2018-08-23T17:05:23.155Z,29.70
2018-08-23T17:07:52.102Z,29.60
2018-08-23T17:10:21.162Z,29.50
2018-08-23T17:12:50.203Z,29.40
2018-08-23T17:15:19.201Z,29.30
2018-08-23T17:17:55.511Z,29.20
2018-08-23T17:20:24.451Z,29.00
2018-08-23T17:22:53.565Z,28.80
2018-08-23T17:25:22.503Z,28.50
2018-08-23T17:27:51.548Z,28.30
2018-08-23T17:30:20.533Z,28.10
2018-08-23T17:32:49.590Z,27.90
2018-08-23T17:35:18.599Z,27.70
2018-08-23T17:37:47.548Z,27.50
2018-08-23T17:40:16.467Z,27.40
2018-08-23T17:42:45.610Z,27.20
2018-08-23T17:45:15.208Z,27.10
2018-08-23T17:47:44.126Z,26.90
2018-08-23T17:50:13.150Z,26.80
2018-08-23T17:52:42.204Z,26.70
2018-08-23T17:55:11.420Z,26.60
2018-08-23T17:57:40.408Z,26.50
2018-08-23T18:00:09.512Z,26.30
2018-08-23T18:02:38.415Z,26.20
2018-08-23T18:05:07.468Z,26.10
2018-08-23T18:07:37.002Z,26.00
2018-08-23T18:10:05.970Z,25.90
2018-08-23T18:12:34.927Z,25.80
2018-08-23T18:15:04.095Z,25.70
2018-08-23T18:17:34.216Z,25.60
2018-08-23T18:20:03.202Z,25.50
2018-08-23T18:22:32.181Z,25.30
2018-08-23T18:25:01.210Z,25.30
2018-08-23T18:27:30.272Z,25.10
2018-08-23T18:29:59.280Z,25.00
2018-08-23T18:32:28.328Z,24.90
2018-08-23T18:34:57.314Z,24.80
2018-08-23T18:37:26.400Z,24.70
2018-08-23T18:39:55.304Z,24.60
2018-08-23T18:42:24.395Z,24.50
2018-08-23T18:44:53.504Z,24.30
2018-08-23T18:47:22.396Z,24.10
2018-08-23T18:49:51.492Z,24.00
2018-08-23T18:52:20.547Z,23.90
2018-08-23T18:54:49.594Z,23.90
2018-08-23T18:57:18.579Z,23.80
2018-08-23T18:59:47.505Z,23.70
2018-08-23T19:02:16.451Z,23.60
2018-08-23T19:04:45.650Z,23.50
2018-08-23T19:07:50.783Z,23.50
2018-08-23T19:10:19.821Z,23.40
2018-08-23T19:12:48.971Z,23.30
2018-08-23T19:15:22.053Z,23.20
2018-08-23T19:17:51.110Z,23.20
2018-08-23T19:20:20.087Z,23.20
2018-08-23T19:22:49.063Z,23.20
2018-08-23T19:25:18.212Z,23.10
2018-08-23T19:27:47.074Z,23.00
2018-08-23T19:30:16.113Z,22.90
2018-08-23T19:32:45.076Z,22.90
2018-08-23T19:35:14.024Z,22.80
2018-08-23T19:37:43.053Z,22.70
2018-08-23T19:40:11.982Z,22.60
2018-08-23T19:42:40.990Z,22.50
2018-08-23T19:45:10.057Z,22.40
2018-08-23T19:47:43.567Z,22.30
2018-08-23T19:50:13.440Z,22.20
2018-08-23T19:52:42.458Z,22.10
2018-08-23T19:55:11.591Z,22.00
2018-08-23T19:57:40.628Z,22.00
2018-08-23T20:00:10.499Z,21.90
2018-08-23T20:02:39.613Z,21.90
2018-08-23T20:05:08.653Z,21.80
2018-08-23T20:07:37.699Z,21.70
2018-08-23T20:10:06.673Z,21.60
2018-08-23T20:12:35.667Z,21.60
2018-08-23T20:15:04.647Z,21.50
2018-08-23T20:17:33.732Z,21.50
2018-08-23T20:20:02.677Z,21.50
2018-08-23T20:22:31.722Z,21.40
2018-08-23T20:25:00.791Z,21.30
2018-08-23T20:27:29.735Z,21.30
2018-08-23T20:29:58.782Z,21.20
2018-08-23T20:32:27.816Z,21.20
2018-08-23T20:34:56.744Z,21.10
2018-08-23T20:37:25.715Z,21.00
2018-08-23T20:39:54.670Z,21.00
2018-08-23T20:42:23.639Z,20.90
2018-08-23T20:44:52.593Z,20.90
2018-08-23T20:47:21.611Z,20.80
2018-08-23T20:49:50.684Z,20.90
2018-08-23T20:52:19.671Z,20.80
2018-08-23T20:54:48.578Z,20.70
2018-08-23T20:57:17.715Z,20.70
2018-08-23T20:59:46.670Z,20.60
2018-08-23T21:02:15.630Z,20.50
2018-08-23T21:04:44.572Z,20.50
2018-08-23T21:07:13.910Z,20.50
2018-08-23T21:09:42.975Z,20.50
2018-08-23T21:12:11.930Z,20.40
2018-08-23T21:14:40.913Z,20.30
2018-08-23T21:17:09.828Z,20.30
2018-08-23T21:19:38.749Z,20.30
2018-08-23T21:22:07.761Z,20.30
2018-08-23T21:24:36.745Z,20.30
2018-08-23T21:27:05.954Z,20.30
2018-08-23T21:29:35.001Z,20.30
2018-08-23T21:32:03.966Z,20.30
2018-08-23T21:34:33.009Z,20.20
2018-08-23T21:37:01.932Z,20.10
2018-08-23T21:39:30.842Z,20.10
2018-08-23T21:41:59.830Z,20.10
2018-08-23T21:44:28.758Z,20.00
2018-08-23T21:46:57.722Z,20.00
2018-08-23T21:49:26.632Z,19.90
2018-08-23T21:51:55.627Z,19.90
2018-08-23T21:54:24.596Z,19.80
2018-08-23T21:56:53.530Z,19.70
2018-08-23T21:59:22.622Z,19.70
2018-08-23T22:01:55.750Z,19.60
2018-08-23T22:04:24.686Z,19.60
2018-08-23T22:06:53.716Z,19.60
2018-08-23T22:09:22.716Z,19.60
2018-08-23T22:11:51.702Z,19.60
2018-08-23T22:14:21.542Z,19.60
2018-08-23T22:16:50.543Z,19.50
2018-08-23T22:19:19.478Z,19.60
2018-08-23T22:21:48.401Z,19.60
2018-08-23T22:24:17.338Z,19.60
2018-08-23T22:26:46.406Z,19.60
2018-08-23T22:29:15.312Z,19.50
2018-08-23T22:31:44.299Z,19.50
2018-08-23T22:34:13.225Z,19.50
2018-08-23T22:36:42.235Z,19.40
2018-08-23T22:39:11.232Z,19.40
2018-08-23T22:41:40.183Z,19.30
2018-08-23T22:44:09.161Z,19.30
2018-08-23T22:46:38.076Z,19.30
2018-08-23T22:49:07.010Z,19.30
2018-08-23T22:51:35.951Z,19.30
2018-08-23T22:54:04.911Z,19.40
2018-08-23T22:56:33.862Z,19.40
2018-08-23T22:59:02.952Z,19.40
2018-08-23T23:01:31.930Z,19.30
2018-08-23T23:04:06.081Z,19.30
2018-08-23T23:06:35.010Z,19.30
2018-08-23T23:09:04.653Z,19.30
2018-08-23T23:11:33.721Z,19.30
2018-08-23T23:14:02.754Z,19.40
2018-08-23T23:16:31.694Z,19.40
2018-08-23T23:19:00.675Z,19.40
2018-08-23T23:21:29.648Z,19.40
2018-08-23T23:23:58.580Z,19.30
2018-08-23T23:26:27.628Z,19.30
2018-08-23T23:28:56.681Z,19.30
2018-08-23T23:31:25.613Z,19.30
2018-08-23T23:33:54.619Z,19.40
2018-08-23T23:36:23.711Z,19.30
2018-08-23T23:38:52.630Z,19.30
2018-08-23T23:41:21.652Z,19.20
2018-08-23T23:43:50.634Z,19.20
2018-08-23T23:46:19.611Z,19.20
2018-08-23T23:48:48.510Z,19.20
2018-08-23T23:51:20.122Z,19.20
2018-08-23T23:53:49.000Z,19.10
2018-08-23T23:56:17.971Z,19.10
2018-08-23T23:58:46.921Z,19.10
